Time;durP1;ratioP1;P1;durP2;ratioP2;P2;SDS_P1;SDS_P2;PMS_P1;PMS_P2;Temp;Humidity;BMP_temperature;BMP_pressure;BME280_temperature;BME280_humidity;BME280_pressure;Samples;Min_cycle;Max_cycle;Signal;HPM_P1;HPM_P2
2021/01/14 00:00:18;;;;;;;1.23;0.20;;;;;;;11.09;55.63;99505.25;4923613;28;97803;-61
2021/01/14 00:02:45;;;;;;;1.23;0.20;;;;;;;11.06;55.64;99502.03;4916168;28;119111;-61
2021/01/14 00:05:12;;;;;;;1.00;0.10;;;;;;;11.07;55.55;99509.00;4922748;28;98181;-61
2021/01/14 00:07:38;;;;;;;0.60;0.10;;;;;;;11.08;55.00;99501.72;4917571;28;109287;-61
2021/01/14 00:10:09;;;;;;;0.70;0.20;;;;;;;11.07;54.80;99500.13;4923223;28;97699;-61
2021/01/14 00:12:35;;;;;;;0.73;0.17;;;;;;;11.13;55.28;99506.25;4919846;28;97734;-61
2021/01/14 00:15:03;;;;;;;0.73;0.20;;;;;;;11.08;55.51;99504.41;4924034;28;98980;-61
2021/01/14 00:17:29;;;;;;;1.35;0.20;;;;;;;11.07;55.58;99503.63;4923394;28;105376;-61
2021/01/14 00:19:55;;;;;;;0.70;0.10;;;;;;;11.06;54.91;99504.72;4923549;28;117888;-61
2021/01/14 00:22:21;;;;;;;1.08;0.20;;;;;;;11.05;55.01;99502.31;4922664;28;127851;-61
2021/01/14 00:24:47;;;;;;;0.80;0.20;;;;;;;11.05;55.26;99497.72;4923491;28;126293;-61
2021/01/14 00:27:13;;;;;;;1.17;0.17;;;;;;;11.04;55.47;99509.63;4902468;28;128231;-61
2021/01/14 00:29:39;;;;;;;1.52;0.20;;;;;;;11.04;55.33;99504.22;4885197;28;97826;-60
2021/01/14 00:32:05;;;;;;;1.35;0.20;;;;;;;11.04;55.25;99501.53;4921099;28;127913;-61
2021/01/14 00:34:32;;;;;;;0.65;0.20;;;;;;;11.01;55.70;99504.00;4898730;28;128049;-61
2021/01/14 00:39:43;;;;;;;0.80;0.20;;;;;;;10.99;55.59;99492.69;4914660;28;97888;-60
2021/01/14 00:42:09;;;;;;;1.00;0.20;;;;;;;11.01;55.42;99495.91;4918365;28;123924;-61
2021/01/14 00:44:35;;;;;;;0.50;0.17;;;;;;;10.99;55.44;99482.72;4920558;28;128691;-60
2021/01/14 00:47:01;;;;;;;1.42;0.20;;;;;;;10.96;55.14;99496.78;4904794;28;127688;-60
2021/01/14 00:49:27;;;;;;;1.05;0.20;;;;;;;10.98;55.29;99491.09;4924402;28;102528;-61
2021/01/14 00:51:53;;;;;;;1.15;0.13;;;;;;;10.97;55.16;99495.69;4923409;28;98218;-60
2021/01/14 00:54:19;;;;;;;1.08;0.10;;;;;;;10.93;55.13;99501.97;4888222;28;115421;-61
2021/01/14 00:56:45;;;;;;;1.30;0.20;;;;;;;10.90;55.13;99502.56;4905293;28;98030;-61
2021/01/14 00:59:12;;;;;;;0.80;0.10;;;;;;;10.90;55.45;99508.75;4915549;28;97948;-60
2021/01/14 01:01:41;;;;;;;1.67;0.20;;;;;;;10.92;55.32;99503.03;4924179;28;98751;-61
2021/01/14 01:04:08;;;;;;;1.20;0.20;;;;;;;10.90;55.07;99506.03;4896924;28;98785;-60
2021/01/14 01:06:41;;;;;;;0.70;0.10;;;;;;;10.89;54.58;99501.75;4923309;28;98737;-61
2021/01/14 01:09:08;;;;;;;0.80;0.10;;;;;;;10.91;55.39;99506.84;4915072;28;98019;-61
2021/01/14 01:11:34;;;;;;;1.25;0.20;;;;;;;10.90;54.77;99521.44;4923359;28;112822;-61
2021/01/14 01:14:00;;;;;;;1.10;0.17;;;;;;;10.92;54.62;99514.63;4913769;28;119134;-61
2021/01/14 01:16:27;;;;;;;0.65;0.10;;;;;;;10.88;54.60;99519.00;4905667;28;98019;-60
2021/01/14 01:18:53;;;;;;;1.10;0.20;;;;;;;10.88;54.62;99520.91;4920893;28;118581;-61
2021/01/14 01:21:19;;;;;;;1.13;0.10;;;;;;;10.86;55.11;99518.50;4922434;28;112526;-60
2021/01/14 01:23:45;;;;;;;1.23;0.13;;;;;;;10.85;55.11;99521.50;4921359;28;129038;-61
2021/01/14 01:26:18;;;;;;;0.68;0.17;;;;;;;10.84;54.78;99526.06;4923294;28;97846;-60
2021/01/14 01:28:45;;;;;;;1.13;0.10;;;;;;;10.82;54.64;99523.69;4922584;28;108086;-60
2021/01/14 01:31:12;;;;;;;1.10;0.20;;;;;;;10.83;55.20;99521.78;4923577;28;98458;-60
2021/01/14 01:33:41;;;;;;;1.02;0.20;;;;;;;10.84;55.26;99522.56;4920857;28;98230;-61
2021/01/14 01:36:10;;;;;;;0.70;0.10;;;;;;;10.82;55.02;99520.19;4905343;28;98083;-60
2021/01/14 01:38:36;;;;;;;0.65;0.17;;;;;;;10.86;54.83;99521.22;4922946;28;107230;-60
2021/01/14 01:41:03;;;;;;;0.73;0.10;;;;;;;10.86;55.00;99521.22;4904667;28;98479;-61
2021/01/14 01:43:29;;;;;;;0.90;0.10;;;;;;;10.85;54.97;99508.81;4914346;28;101839;-60
2021/01/14 01:45:55;;;;;;;0.88;0.10;;;;;;;10.84;55.10;99517.19;4922876;28;98490;-60
2021/01/14 01:48:22;;;;;;;0.73;0.10;;;;;;;10.87;54.45;99508.53;4896180;28;113989;-60
2021/01/14 01:50:51;;;;;;;1.10;0.10;;;;;;;10.85;54.88;99513.41;4922902;28;98279;-60
2021/01/14 01:53:17;;;;;;;1.63;0.10;;;;;;;10.84;55.30;99493.72;4896209;28;111623;-60
2021/01/14 01:55:44;;;;;;;1.13;0.10;;;;;;;10.84;54.58;99498.31;4922797;28;97843;-60
2021/01/14 01:58:11;;;;;;;1.00;0.15;;;;;;;10.82;55.08;99495.94;4905696;28;103704;-61
2021/01/14 02:00:37;;;;;;;0.75;0.10;;;;;;;10.82;54.66;99502.13;4883265;28;98110;-61
2021/01/14 02:03:03;;;;;;;1.02;0.10;;;;;;;10.85;54.78;99497.25;4881882;28;98299;-60
2021/01/14 02:05:30;;;;;;;1.27;0.20;;;;;;;10.80;54.64;99490.81;4883374;28;117454;-60
2021/01/14 02:08:02;;;;;;;0.65;0.10;;;;;;;10.84;54.72;99498.31;4917386;28;98144;-60
2021/01/14 02:10:44;;;;;;;0.88;0.10;;;;;;;10.87;55.12;99486.97;4922972;28;98404;-60
2021/01/14 02:13:47;;;;;;;1.27;0.10;;;;;;;10.84;55.04;99490.22;4923087;28;98732;-61
2021/01/14 02:16:14;;;;;;;1.02;0.10;;;;;;;10.85;54.85;99495.34;4922807;28;98075;-61
2021/01/14 02:18:42;;;;;;;0.60;0.10;;;;;;;10.85;54.22;99499.94;4914538;28;98123;-61
2021/01/14 02:21:10;;;;;;;1.42;0.10;;;;;;;10.84;54.20;99498.31;4913971;28;98940;-60
2021/01/14 02:24:08;;;;;;;0.90;0.10;;;;;;;10.82;54.91;99498.63;4922436;28;98377;-60
2021/01/14 02:26:34;;;;;;;1.27;0.10;;;;;;;10.81;54.92;99492.44;4903456;28;112556;-60
2021/01/14 02:29:00;;;;;;;0.63;0.10;;;;;;;10.83;55.01;99492.13;4903713;28;106569;-61
2021/01/14 02:31:27;;;;;;;1.48;0.10;;;;;;;10.88;54.48;99494.75;4888203;28;98620;-61
2021/01/14 02:33:54;;;;;;;0.70;0.10;;;;;;;10.81;54.66;99503.22;4913073;28;116810;-61
2021/01/14 02:36:22;;;;;;;0.98;0.13;;;;;;;10.84;55.31;99495.63;4904570;28;97857;-60
2021/01/14 02:38:48;;;;;;;0.90;0.10;;;;;;;10.85;55.02;99494.56;4914344;28;97796;-60
2021/01/14 02:41:14;;;;;;;0.88;0.10;;;;;;;10.86;54.78;99502.34;4921171;28;127742;-61
2021/01/14 02:43:40;;;;;;;0.47;0.10;;;;;;;10.78;55.02;99498.41;4913615;28;99119;-60
2021/01/14 02:46:07;;;;;;;1.40;0.10;;;;;;;10.81;54.64;99495.13;4919171;28;98492;-61
2021/01/14 02:49:12;;;;;;;0.90;0.10;;;;;;;10.77;55.44;99496.00;4921278;28;98086;-60
2021/01/14 02:51:50;;;;;;;1.13;0.10;;;;;;;10.72;55.28;99493.38;4843673;28;98643;-60
2021/01/14 02:54:16;;;;;;;0.75;0.10;;;;;;;10.72;55.80;99491.47;4883741;28;100282;-61
2021/01/14 02:56:42;;;;;;;1.02;0.13;;;;;;;10.69;55.04;99494.78;4901847;28;97869;-61
2021/01/14 02:59:11;;;;;;;1.30;0.10;;;;;;;10.70;55.56;99482.88;4883034;28;119803;-61
2021/01/14 03:01:37;;;;;;;1.90;0.10;;;;;;;10.69;55.10;99485.84;4916016;28;99025;-61
2021/01/14 03:04:03;;;;;;;1.27;0.15;;;;;;;10.72;55.48;99488.78;4920521;28;128731;-61
2021/01/14 03:06:29;;;;;;;1.15;0.10;;;;;;;10.68;54.97;99492.34;4922046;28;98394;-61
2021/01/14 03:08:56;;;;;;;1.08;0.20;;;;;;;10.67;55.53;99496.94;4924093;28;117259;-61
2021/01/14 03:11:28;;;;;;;0.95;0.20;;;;;;;10.67;55.34;99499.63;4924163;28;115195;-61
2021/01/14 03:13:55;;;;;;;0.82;0.15;;;;;;;10.67;55.11;99496.13;4924580;28;98688;-61
2021/01/14 03:16:22;;;;;;;0.63;0.20;;;;;;;10.65;55.50;99498.31;4925564;28;97927;-61
2021/01/14 03:18:48;;;;;;;1.38;0.20;;;;;;;10.66;55.71;99497.25;4924479;28;97803;-61
2021/01/14 03:21:21;;;;;;;1.33;0.15;;;;;;;10.67;55.34;99501.53;4924126;28;98244;-60
2021/01/14 03:23:47;;;;;;;0.60;0.10;;;;;;;10.67;54.93;99499.63;4916210;28;114083;-61
2021/01/14 03:26:14;;;;;;;0.50;0.10;;;;;;;10.69;55.51;99499.31;4925187;28;97997;-61
2021/01/14 03:28:40;;;;;;;1.27;0.10;;;;;;;10.68;55.49;99509.31;4916961;28;97894;-61
2021/01/14 03:31:06;;;;;;;0.80;0.10;;;;;;;10.67;56.25;99512.31;4924261;28;116773;-61
2021/01/14 03:33:33;;;;;;;0.85;0.10;;;;;;;10.71;55.83;99514.13;4907059;28;98173;-61
2021/01/14 03:35:59;;;;;;;0.40;0.10;;;;;;;10.68;55.82;99522.00;4902546;28;124877;-61
2021/01/14 03:38:25;;;;;;;0.60;0.10;;;;;;;10.69;55.32;99523.59;4896981;28;115059;-61
2021/01/14 03:40:51;;;;;;;0.85;0.13;;;;;;;10.67;55.84;99518.50;4912900;28;98784;-61
2021/01/14 03:43:17;;;;;;;0.90;0.20;;;;;;;10.70;55.46;99526.00;4924522;28;127445;-61
2021/01/14 03:45:43;;;;;;;0.65;0.10;;;;;;;10.69;55.94;99528.97;4925004;28;98048;-61
2021/01/14 03:48:09;;;;;;;0.95;0.10;;;;;;;10.67;56.15;99529.28;4914973;28;118185;-61
2021/01/14 03:50:35;;;;;;;0.75;0.10;;;;;;;10.68;55.59;99532.78;4924124;28;127556;-61
2021/01/14 03:53:01;;;;;;;0.50;0.10;;;;;;;10.68;55.67;99530.06;4915084;28;127852;-61
2021/01/14 03:55:27;;;;;;;1.33;0.10;;;;;;;10.70;55.47;99550.25;4924114;28;125391;-61
2021/01/14 03:57:54;;;;;;;0.28;0.10;;;;;;;10.71;55.65;99556.47;4923186;28;116297;-61
2021/01/14 04:00:20;;;;;;;0.73;0.10;;;;;;;10.68;55.49;99552.44;4923311;28;128403;-62
2021/01/14 04:02:46;;;;;;;0.52;0.10;;;;;;;10.70;55.30;99555.66;4923466;28;98219;-61
2021/01/14 04:05:12;;;;;;;0.40;0.10;;;;;;;10.71;55.74;99556.47;4905631;28;125880;-61
2021/01/14 04:07:38;;;;;;;0.45;0.10;;;;;;;10.70;55.64;99566.44;4905793;28;97979;-61
2021/01/14 04:10:05;;;;;;;0.80;0.20;;;;;;;10.72;55.63;99585.00;4905665;28;127960;-60
2021/01/14 04:12:32;;;;;;;0.28;0.10;;;;;;;10.72;56.56;99590.41;4923042;28;116426;-61
2021/01/14 04:14:58;;;;;;;0.40;0.10;;;;;;;10.72;55.21;99601.19;4922369;28;127714;-61
2021/01/14 04:17:27;;;;;;;0.43;0.10;;;;;;;10.70;55.91;99604.19;4923430;28;98013;-61
2021/01/14 04:19:54;;;;;;;0.30;0.05;;;;;;;10.74;55.75;99613.28;4905014;28;97884;-61
2021/01/14 04:22:20;;;;;;;0.50;0.10;;;;;;;10.73;56.07;99611.69;4921926;28;125766;-62
2021/01/14 04:24:46;;;;;;;0.45;0.10;;;;;;;10.72;55.80;99630.81;4923623;28;127726;-62
2021/01/14 04:27:12;;;;;;;0.60;0.00;;;;;;;10.76;55.50;99637.25;4922437;28;117807;-61
2021/01/14 04:29:38;;;;;;;0.30;0.00;;;;;;;10.75;55.98;99646.44;4923301;28;126783;-61
2021/01/14 04:32:04;;;;;;;0.90;0.10;;;;;;;10.73;56.20;99648.63;4922520;28;126725;-61
2021/01/14 04:34:30;;;;;;;0.52;0.10;;;;;;;10.76;55.84;99670.41;4924691;28;97977;-61
2021/01/14 04:37:00;;;;;;;0.57;0.10;;;;;;;10.72;55.51;99682.84;4922732;28;119020;-61
2021/01/14 04:39:27;;;;;;;0.40;0.10;;;;;;;10.71;55.62;99685.84;4923814;28;116917;-61
2021/01/14 04:41:58;;;;;;;0.40;0.00;;;;;;;10.65;55.58;99695.06;4920068;28;115507;-61
2021/01/14 04:44:27;;;;;;;0.47;0.00;;;;;;;10.66;55.04;99710.16;4924587;28;97880;-61
2021/01/14 04:47:13;;;;;;;0.63;0.00;;;;;;;10.63;55.88;99716.91;4924305;28;98095;-61
2021/01/14 04:49:40;;;;;;;0.22;0.10;;;;;;;10.59;55.35;99723.16;4923789;28;103612;-61
2021/01/14 04:52:06;;;;;;;0.13;0.00;;;;;;;10.56;54.78;99733.41;4904975;28;98769;-61
2021/01/14 04:54:35;;;;;;;0.20;0.00;;;;;;;10.53;54.44;99743.94;4905322;28;98052;-61
2021/01/14 04:57:17;;;;;;;0.22;0.00;;;;;;;10.52;54.69;99753.13;4923400;28;98172;-61
2021/01/14 04:59:45;;;;;;;0.30;0.10;;;;;;;10.53;54.96;99762.81;4923146;28;98144;-61
2021/01/14 05:02:22;;;;;;;0.30;0.10;;;;;;;10.48;54.64;99769.06;4921476;28;98523;-60
2021/01/14 05:04:53;;;;;;;0.30;0.10;;;;;;;10.46;55.29;99784.72;4922046;28;98576;-61
2021/01/14 05:07:32;;;;;;;0.25;0.00;;;;;;;10.44;54.88;99802.25;4922776;28;108493;-60
2021/01/14 05:10:04;;;;;;;0.22;0.00;;;;;;;10.49;54.81;99810.28;4923356;28;111597;-60
2021/01/14 05:12:32;;;;;;;0.67;0.10;;;;;;;10.48;54.79;99812.16;4904605;28;98418;-61
2021/01/14 05:14:59;;;;;;;0.40;0.20;;;;;;;10.46;54.45;99825.13;4923314;28;104020;-61
2021/01/14 05:17:29;;;;;;;0.98;0.20;;;;;;;10.48;54.84;99822.94;4921262;28;104031;-60
2021/01/14 05:19:55;;;;;;;1.10;0.20;;;;;;;10.51;54.30;99843.94;4904873;28;98519;-60
2021/01/14 05:22:24;;;;;;;1.30;0.28;;;;;;;10.52;55.05;99847.44;4923573;28;98103;-60
2021/01/14 05:25:07;;;;;;;0.73;0.20;;;;;;;10.51;54.53;99859.31;4921077;28;97819;-61
2021/01/14 05:27:35;;;;;;;0.77;0.20;;;;;;;10.60;55.11;99864.91;4922631;28;97747;-60
2021/01/14 05:30:08;;;;;;;0.60;0.20;;;;;;;10.54;55.17;99870.34;4921274;28;98917;-60
2021/01/14 05:32:42;;;;;;;0.77;0.20;;;;;;;10.54;55.07;99869.53;4882596;28;99299;-60
2021/01/14 05:35:11;;;;;;;0.50;0.20;;;;;;;10.55;54.29;99885.41;4884763;28;98481;-60
2021/01/14 05:37:42;;;;;;;0.68;0.10;;;;;;;10.57;55.30;99885.13;4884792;28;98087;-60
2021/01/14 05:40:22;;;;;;;0.52;0.13;;;;;;;10.62;54.77;99895.09;4885079;28;98148;-60
2021/01/14 05:43:04;;;;;;;0.82;0.10;;;;;;;10.57;55.25;99904.00;4906251;28;99024;-60
2021/01/14 05:45:30;;;;;;;0.40;0.10;;;;;;;10.59;55.15;99904.53;4923508;28;98035;-60
2021/01/14 05:48:13;;;;;;;0.40;0.10;;;;;;;10.60;55.48;99933.09;4921303;28;107933;-60
2021/01/14 05:50:46;;;;;;;0.60;0.20;;;;;;;10.61;55.15;99923.09;4922548;28;98924;-60
2021/01/14 05:53:21;;;;;;;0.40;0.13;;;;;;;10.59;55.53;99938.78;4922912;28;98939;-60
2021/01/14 05:55:51;;;;;;;0.52;0.20;;;;;;;10.59;55.41;99950.34;4885910;28;126886;-60
2021/01/14 05:58:19;;;;;;;0.40;0.17;;;;;;;10.61;55.47;99955.44;4914646;28;98380;-60
2021/01/14 06:00:48;;;;;;;0.50;0.20;;;;;;;10.59;55.14;99955.75;4922012;28;98592;-60
2021/01/14 06:03:30;;;;;;;0.50;0.20;;;;;;;10.61;55.16;99963.53;4914022;28;99571;-61
2021/01/14 06:05:58;;;;;;;0.50;0.20;;;;;;;10.60;55.30;99978.91;4922481;28;98034;-60
2021/01/14 06:08:28;;;;;;;0.65;0.20;;;;;;;10.61;55.00;99977.00;4903391;28;98026;-60
2021/01/14 06:10:55;;;;;;;0.50;0.20;;;;;;;10.61;55.73;99985.94;4901993;28;106225;-60
2021/01/14 06:13:40;;;;;;;0.65;0.20;;;;;;;10.59;55.44;99989.97;4902604;28;117296;-60
2021/01/14 06:16:06;;;;;;;0.60;0.20;;;;;;;10.65;55.47;99988.84;4912990;28;97999;-60
2021/01/14 06:18:32;;;;;;;0.88;0.30;;;;;;;10.67;54.69;100000.16;4922654;28;99545;-60
2021/01/14 06:20:58;;;;;;;1.02;0.30;;;;;;;10.73;54.88;100012.53;4921772;28;114685;-60
2021/01/14 06:23:24;;;;;;;0.70;0.30;;;;;;;10.76;55.12;100017.34;4921912;28;117771;-60
2021/01/14 06:25:54;;;;;;;1.10;0.32;;;;;;;10.78;54.83;100028.69;4922252;28;99420;-60
2021/01/14 06:28:32;;;;;;;0.82;0.30;;;;;;;10.82;54.62;100030.53;4913847;28;107143;-60
2021/01/14 06:31:04;;;;;;;1.30;0.60;;;;;;;10.82;54.96;100045.91;4920423;28;97829;-60
2021/01/14 06:33:30;;;;;;;1.40;0.57;;;;;;;10.80;54.60;100056.16;4921862;28;99183;-60
2021/01/14 06:36:10;;;;;;;1.30;0.60;;;;;;;10.82;54.82;100072.88;4921539;28;99231;-60
2021/01/14 06:38:46;;;;;;;1.55;0.77;;;;;;;10.82;54.58;100081.75;4921941;28;105967;-60
2021/01/14 06:41:20;;;;;;;1.77;0.70;;;;;;;10.82;55.08;100083.66;4922228;28;99388;-60
2021/01/14 06:43:50;;;;;;;1.30;0.60;;;;;;;10.89;54.72;100089.56;4919538;28;98635;-60
2021/01/14 06:46:21;;;;;;;1.48;0.85;;;;;;;10.83;55.21;100098.75;4919511;28;97756;-60
2021/01/14 06:49:15;;;;;;;1.92;1.00;;;;;;;10.85;55.14;100101.19;4901397;28;97828;-60
2021/01/14 06:51:57;;;;;;;1.80;1.00;;;;;;;10.83;54.77;100112.22;4922231;28;98176;-60
2021/01/14 06:54:27;;;;;;;2.60;1.20;;;;;;;10.80;54.34;100118.97;4899870;28;98880;-60
2021/01/14 06:57:14;;;;;;;2.00;1.17;;;;;;;10.82;54.99;100124.91;4902226;28;124761;-60
2021/01/14 06:59:40;;;;;;;1.63;1.20;;;;;;;10.82;54.75;100126.78;4902381;28;97881;-60
2021/01/14 07:02:06;;;;;;;2.05;1.30;;;;;;;10.80;54.68;100139.72;4901862;28;99271;-60
2021/01/14 07:04:44;;;;;;;2.30;1.10;;;;;;;10.80;54.72;100151.31;4902693;28;99339;-60
2021/01/14 07:07:29;;;;;;;2.38;1.35;;;;;;;10.81;55.12;100158.34;4893174;28;98192;-60
2021/01/14 07:10:09;;;;;;;1.60;1.13;;;;;;;10.83;55.20;100152.66;4884579;28;97903;-60
2021/01/14 07:12:40;;;;;;;2.25;1.40;;;;;;;10.85;54.82;100157.81;4900121;28;100901;-60
2021/01/14 07:15:10;;;;;;;3.00;1.48;;;;;;;10.86;55.24;100162.09;4900619;28;98419;-60
2021/01/14 07:17:39;;;;;;;2.83;1.40;;;;;;;10.89;54.88;100177.75;4902408;28;98151;-60
2021/01/14 07:20:16;;;;;;;2.50;1.27;;;;;;;10.92;54.88;100169.06;4904555;28;97924;-60
2021/01/14 07:22:53;;;;;;;2.50;1.35;;;;;;;10.91;55.04;100191.75;4895059;28;99162;-60
2021/01/14 07:25:20;;;;;;;2.60;1.58;;;;;;;10.91;55.08;100203.31;4901461;28;117203;-60
2021/01/14 07:27:48;;;;;;;2.92;1.67;;;;;;;10.90;55.07;100219.78;4895246;28;117033;-60
2021/01/14 07:30:18;;;;;;;3.13;1.70;;;;;;;10.88;55.48;100219.25;4875896;28;98123;-60
2021/01/14 07:32:53;;;;;;;3.00;1.85;;;;;;;10.90;55.50;100227.88;4882560;28;98939;-60
2021/01/14 07:35:40;;;;;;;3.05;1.75;;;;;;;10.91;55.14;100238.38;4882409;28;98824;-60
2021/01/14 07:38:10;;;;;;;2.40;1.70;;;;;;;10.92;55.86;100240.00;4882774;28;98217;-60
2021/01/14 07:40:37;;;;;;;2.75;1.95;;;;;;;10.92;55.30;100241.88;4901899;28;97815;-60
2021/01/14 07:43:06;;;;;;;2.78;2.20;;;;;;;10.93;55.62;100249.72;4876111;28;98288;-61
2021/01/14 07:45:32;;;;;;;2.90;1.90;;;;;;;10.97;55.23;100249.97;4902213;28;99112;-60
2021/01/14 07:48:21;;;;;;;3.95;2.08;;;;;;;10.94;55.30;100254.03;4901028;28;97753;-60
2021/01/14 07:50:57;;;;;;;3.28;1.92;;;;;;;10.96;55.42;100259.13;4901501;28;97736;-60
2021/01/14 07:53:24;;;;;;;4.07;2.10;;;;;;;10.96;55.77;100268.03;4893372;28;98770;-61
2021/01/14 07:55:50;;;;;;;3.83;2.38;;;;;;;10.96;55.18;100267.22;4899346;28;98417;-60
2021/01/14 07:58:20;;;;;;;3.03;1.92;;;;;;;10.99;55.27;100280.97;4923365;28;99125;-60
2021/01/14 08:01:08;;;;;;;4.78;2.70;;;;;;;10.98;55.56;100287.44;4924287;28;97818;-60
2021/01/14 08:03:40;;;;;;;4.53;2.50;;;;;;;11.02;55.74;100291.22;4918615;28;98897;-60
2021/01/14 08:06:16;;;;;;;;;;;;;;;10.99;55.92;100296.34;4923949;28;99079;-60
2021/01/14 08:08:53;;;;;;;3.47;2.10;;;;;;;10.99;55.57;100299.03;4921729;28;97867;-60
2021/01/14 08:11:20;;;;;;;3.45;2.35;;;;;;;11.03;56.38;100306.31;4902867;28;107181;-60
2021/01/14 08:14:18;;;;;;;4.75;3.03;;;;;;;11.03;56.05;100319.00;4918671;28;98772;-60
2021/01/14 08:16:56;;;;;;;3.92;2.67;;;;;;;11.03;56.55;100327.88;4923523;28;98473;-60
2021/01/14 08:19:33;;;;;;;4.75;3.10;;;;;;;11.03;56.50;100337.88;4924662;28;101863;-59
2021/01/14 08:21:58;;;;;;;4.82;2.97;;;;;;;11.03;56.63;100348.66;4923371;28;98575;-60
2021/01/14 08:24:50;;;;;;;5.47;3.08;;;;;;;11.06;57.27;100353.53;4923969;28;98706;-60
2021/01/14 08:27:36;;;;;;;5.05;3.40;;;;;;;11.06;57.15;100364.31;4921024;28;98470;-60
2021/01/14 08:30:13;;;;;;;5.72;3.40;;;;;;;11.06;57.21;100367.81;4920806;28;118560;-60
2021/01/14 08:33:08;;;;;;;5.65;3.70;;;;;;;11.11;58.10;100379.66;4922429;28;97985;-61
2021/01/14 08:35:37;;;;;;;4.75;3.40;;;;;;;11.17;57.93;100387.50;4914056;28;98440;-60
2021/01/14 08:38:11;;;;;;;5.90;3.83;;;;;;;11.17;57.37;100397.47;4915449;28;98883;-60
2021/01/14 08:40:39;;;;;;;5.95;3.53;;;;;;;11.15;57.65;100403.13;4921733;28;98312;-61
2021/01/14 08:43:09;;;;;;;4.82;3.50;;;;;;;11.18;57.95;100413.38;4905560;28;98035;-60
2021/01/14 08:45:35;;;;;;;5.90;3.85;;;;;;;11.21;57.91;100414.75;4923600;28;99100;-60
2021/01/14 08:48:29;;;;;;;6.45;4.28;;;;;;;11.19;58.33;100425.78;4915088;28;98448;-60
2021/01/14 08:50:55;;;;;;;5.50;4.00;;;;;;;11.21;58.26;100422.84;4924344;28;98195;-61
2021/01/14 08:53:21;;;;;;;5.72;4.03;;;;;;;11.22;58.02;100430.63;4916319;28;97886;-60
2021/01/14 08:56:04;;;;;;;5.00;4.00;;;;;;;11.20;58.11;100434.69;4917012;28;98655;-60
2021/01/14 08:58:46;;;;;;;6.13;4.40;;;;;;;11.20;58.61;100442.78;4903954;28;98502;-60
2021/01/14 09:01:24;;;;;;;5.75;4.10;;;;;;;11.21;57.82;100447.91;4905135;28;98195;-60
2021/01/14 09:03:54;;;;;;;5.82;4.10;;;;;;;11.18;58.69;100451.16;4904119;28;97683;-60
2021/01/14 09:06:38;;;;;;;5.65;3.90;;;;;;;11.19;58.88;100458.16;4916341;28;112861;-60
2021/01/14 09:09:14;;;;;;;4.95;3.78;;;;;;;11.22;58.80;100464.91;4903747;28;98574;-61
2021/01/14 09:11:40;;;;;;;6.32;4.30;;;;;;;11.23;58.12;100477.31;4902281;28;99153;-60
2021/01/14 09:14:13;;;;;;;6.40;4.20;;;;;;;11.21;57.99;100474.09;4904085;28;97869;-60
2021/01/14 09:16:44;;;;;;;6.85;4.07;;;;;;;11.21;58.64;100488.38;4904990;28;109635;-60
2021/01/14 09:19:21;;;;;;;5.05;3.67;;;;;;;11.21;58.73;100496.47;4903404;28;98491;-60
2021/01/14 09:21:47;;;;;;;8.38;4.25;;;;;;;11.25;58.46;100499.47;4917886;28;98675;-60
2021/01/14 09:24:15;;;;;;;5.07;3.92;;;;;;;11.27;58.34;100505.38;4902135;28;98333;-61
2021/01/14 09:26:41;;;;;;;6.03;4.05;;;;;;;11.28;58.16;100510.53;4903335;28;99693;-60
2021/01/14 09:29:11;;;;;;;5.80;3.92;;;;;;;11.31;58.53;100514.53;4903360;28;112591;-60
2021/01/14 09:31:38;;;;;;;6.22;3.65;;;;;;;11.31;58.47;100523.44;4903657;28;98131;-61
2021/01/14 09:34:04;;;;;;;5.57;3.70;;;;;;;11.38;58.31;100533.16;4902927;28;98146;-61
2021/01/14 09:36:33;;;;;;;6.40;3.88;;;;;;;11.40;58.30;100531.03;4914412;28;126582;-60
2021/01/14 09:39:01;;;;;;;5.25;3.47;;;;;;;11.41;58.85;100535.34;4914705;28;98351;-60
2021/01/14 09:41:31;;;;;;;5.20;3.70;;;;;;;11.44;58.50;100543.72;4919618;28;97972;-60
2021/01/14 09:44:02;;;;;;;5.43;3.55;;;;;;;11.44;58.65;100545.59;4913674;28;98753;-60
2021/01/14 09:46:31;;;;;;;4.50;3.28;;;;;;;11.41;58.62;100555.03;4920555;28;118982;-60
2021/01/14 09:49:09;;;;;;;5.57;3.67;;;;;;;11.39;58.59;100559.88;4914751;28;98397;-60
2021/01/14 09:51:36;;;;;;;6.07;3.47;;;;;;;11.46;58.88;100560.44;4918521;28;98694;-60
2021/01/14 09:54:07;;;;;;;5.20;3.50;;;;;;;11.53;58.82;100570.97;4916516;28;97791;-60
2021/01/14 09:56:44;;;;;;;5.72;3.47;;;;;;;11.62;58.23;100573.91;4908329;28;108380;-60
2021/01/14 09:59:27;;;;;;;4.50;3.20;;;;;;;11.72;57.95;100576.63;4892695;28;98440;-61
2021/01/14 10:02:29;;;;;;;5.28;3.70;;;;;;;11.74;58.28;100580.66;4912644;28;116741;-60
2021/01/14 10:04:59;;;;;;;4.32;3.45;;;;;;;11.82;58.03;100584.69;4917476;28;97934;-60
2021/01/14 10:07:25;;;;;;;5.45;3.65;;;;;;;11.92;58.31;100586.59;4906752;28;98349;-60
2021/01/14 10:09:54;;;;;;;4.57;3.17;;;;;;;11.94;58.13;100581.72;4881786;28;99160;-60
2021/01/14 10:12:20;;;;;;;4.00;3.50;;;;;;;11.95;58.58;100596.88;4912789;28;127525;-61
2021/01/14 10:14:46;;;;;;;5.43;3.55;;;;;;;12.01;58.52;100603.88;4881024;28;106413;-61
2021/01/14 10:17:15;;;;;;;4.40;3.47;;;;;;;12.03;58.47;100607.13;4894334;28;97831;-60
2021/01/14 10:19:47;;;;;;;5.13;3.67;;;;;;;12.02;58.51;100609.03;4884840;28;98304;-61
2021/01/14 10:22:13;;;;;;;;;;;;;;;11.97;58.68;100609.00;4882358;28;98088;-61
2021/01/14 10:24:39;;;;;;;4.68;3.30;;;;;;;11.97;58.96;100616.31;4880843;28;103806;-61
2021/01/14 10:27:16;;;;;;;5.35;3.63;;;;;;;12.02;58.87;100627.94;4902444;28;121463;-61
2021/01/14 10:29:42;;;;;;;4.68;3.47;;;;;;;12.12;58.54;100620.88;4903560;28;98579;-60
2021/01/14 10:32:22;;;;;;;4.68;3.60;;;;;;;12.22;58.38;100626.25;4918980;28;116207;-61
2021/01/14 10:34:50;;;;;;;4.15;3.38;;;;;;;12.37;57.70;100634.31;4918661;28;98088;-61
2021/01/14 10:37:30;;;;;;;4.50;3.22;;;;;;;12.49;57.74;100636.72;4919897;28;98487;-61
2021/01/14 10:40:03;;;;;;;4.35;3.05;;;;;;;12.51;58.00;100648.88;4918223;28;98513;-61
2021/01/14 10:42:39;;;;;;;6.72;3.42;;;;;;;12.47;58.15;100647.81;4909535;28;98499;-61
2021/01/14 10:45:11;;;;;;;3.72;3.00;;;;;;;12.50;58.27;100652.69;4903525;28;97938;-61
2021/01/14 10:47:39;;;;;;;4.32;2.92;;;;;;;12.62;57.91;100657.78;4902209;28;98918;-61
2021/01/14 10:50:22;;;;;;;4.90;2.97;;;;;;;12.60;58.47;100669.94;4902960;28;99140;-61
2021/01/14 10:53:24;;;;;;;3.47;2.70;;;;;;;12.62;58.57;100665.06;4902203;28;98451;-61
2021/01/14 10:56:04;;;;;;;4.93;3.35;;;;;;;12.56;58.75;100664.28;4882498;28;100618;-61
2021/01/14 10:58:30;;;;;;;4.97;3.15;;;;;;;12.58;58.71;100674.81;4894342;28;98932;-61
2021/01/14 11:00:56;;;;;;;3.88;2.67;;;;;;;12.50;59.12;100674.31;4890976;28;99032;-61
2021/01/14 11:03:24;;;;;;;4.40;3.00;;;;;;;12.44;59.42;100680.00;4893842;28;98525;-61
2021/01/14 11:05:59;;;;;;;3.83;2.60;;;;;;;12.44;59.40;100682.69;4903014;28;98142;-61
2021/01/14 11:08:47;;;;;;;4.97;3.17;;;;;;;12.45;59.29;100682.41;4902671;28;99327;-61
2021/01/14 11:11:14;;;;;;;5.30;3.00;;;;;;;12.48;59.45;100679.16;4896353;28;98430;-61
2021/01/14 11:13:47;;;;;;;3.97;2.97;;;;;;;12.52;58.94;100677.53;4884075;28;97940;-62
2021/01/14 11:16:34;;;;;;;3.70;2.85;;;;;;;12.60;58.66;100669.94;4902407;28;97802;-61
2021/01/14 11:19:00;;;;;;;4.43;2.90;;;;;;;12.67;58.78;100668.56;4893120;28;128216;-61
2021/01/14 11:21:31;;;;;;;4.07;2.67;;;;;;;12.78;58.65;100672.03;4893572;28;98042;-61
2021/01/14 11:23:57;;;;;;;3.80;2.78;;;;;;;12.83;58.48;100669.31;4893890;28;98499;-62
2021/01/14 11:26:23;;;;;;;3.45;2.80;;;;;;;12.88;58.59;100668.47;4895323;28;117400;-61
2021/01/14 11:28:50;;;;;;;3.03;2.42;;;;;;;12.98;58.27;100674.66;4891880;28;98934;-61
2021/01/14 11:31:20;;;;;;;4.20;2.88;;;;;;;13.04;58.06;100678.13;4896598;28;99260;-61
2021/01/14 11:33:46;;;;;;;3.45;2.47;;;;;;;13.08;58.25;100676.47;4887137;28;98735;-62
2021/01/14 11:36:14;;;;;;;4.13;2.78;;;;;;;13.05;58.12;100681.63;4885705;28;101350;-62
2021/01/14 11:38:41;;;;;;;3.63;2.65;;;;;;;12.96;58.71;100682.22;4902386;28;116859;-61
2021/01/14 11:41:08;;;;;;;3.00;2.40;;;;;;;13.09;58.34;100671.91;4903739;28;98976;-61
2021/01/14 11:43:35;;;;;;;4.80;2.63;;;;;;;13.16;58.19;100677.78;4894890;28;120275;-61
2021/01/14 11:46:01;;;;;;;3.92;2.40;;;;;;;13.19;58.12;100678.06;4884137;28;99422;-62